createdAt,value
2018-07-23T00:01:56.001Z,20.30
2018-07-23T00:04:24.365Z,20.30
2018-07-23T00:06:52.697Z,20.30
2018-07-23T00:09:20.997Z,20.30
2018-07-23T00:11:49.307Z,20.30
2018-07-23T00:16:45.889Z,20.30
2018-07-23T00:19:14.240Z,20.30
2018-07-23T00:21:42.776Z,20.40
2018-07-23T00:24:11.142Z,20.40
2018-07-23T00:26:39.491Z,20.30
2018-07-23T00:29:07.822Z,20.40
2018-07-23T00:31:36.172Z,20.40
2018-07-23T00:34:04.505Z,20.30
2018-07-23T00:36:32.866Z,20.20
2018-07-23T00:39:01.226Z,20.20
2018-07-23T00:41:29.566Z,20.20
2018-07-23T00:43:57.937Z,20.10
2018-07-23T00:46:26.297Z,20.20
2018-07-23T00:51:22.732Z,20.10
2018-07-23T00:53:51.052Z,19.90
2018-07-23T00:56:19.374Z,19.90
2018-07-23T00:58:47.666Z,19.90
2018-07-23T01:01:15.967Z,19.90
2018-07-23T01:03:44.326Z,19.90
2018-07-23T01:06:12.626Z,19.90
2018-07-23T01:08:40.987Z,20.00
2018-07-23T01:11:09.348Z,20.00
2018-07-23T01:13:37.685Z,20.00
2018-07-23T01:16:06.045Z,19.90
2018-07-23T01:18:34.408Z,19.90
2018-07-23T01:21:02.891Z,19.90
2018-07-23T01:23:31.234Z,19.80
2018-07-23T01:25:59.599Z,19.90
2018-07-23T01:28:27.983Z,19.80
2018-07-23T01:30:56.336Z,19.80
2018-07-23T01:33:24.702Z,19.90
2018-07-23T01:35:53.094Z,19.90
2018-07-23T01:38:21.395Z,19.90
2018-07-23T01:40:49.730Z,19.80
2018-07-23T01:43:18.092Z,19.80
2018-07-23T01:45:46.422Z,19.90
2018-07-23T01:48:14.769Z,19.70
2018-07-23T01:50:43.387Z,19.70
2018-07-23T01:53:11.686Z,19.70
2018-07-23T01:55:40.047Z,19.80
2018-07-23T01:58:08.382Z,19.90
2018-07-23T02:00:36.858Z,19.80
2018-07-23T02:03:05.217Z,19.80
2018-07-23T02:05:33.691Z,19.60
2018-07-23T02:08:02.108Z,19.40
2018-07-23T02:10:30.402Z,19.30
2018-07-23T02:12:58.933Z,19.30
2018-07-23T02:15:27.282Z,19.20
2018-07-23T02:17:55.634Z,19.20
2018-07-23T02:20:24.055Z,19.10
2018-07-23T02:22:52.450Z,19.10
2018-07-23T02:25:20.802Z,19.10
2018-07-23T02:27:49.158Z,19.00
2018-07-23T02:30:17.583Z,19.00
2018-07-23T02:32:46.023Z,19.00
2018-07-23T02:35:15.248Z,19.00
2018-07-23T02:37:43.923Z,18.90
2018-07-23T02:40:12.274Z,19.00
2018-07-23T02:42:40.677Z,18.90
2018-07-23T02:45:09.111Z,18.90
2018-07-23T02:47:37.506Z,18.90
2018-07-23T02:52:34.123Z,18.90
2018-07-23T02:55:03.049Z,18.80
2018-07-23T02:57:31.414Z,18.90
2018-07-23T03:00:00.127Z,18.80
2018-07-23T03:02:29.442Z,18.80
2018-07-23T03:04:57.841Z,18.80
2018-07-23T03:07:26.235Z,18.80
2018-07-23T03:09:54.587Z,18.70
2018-07-23T03:12:23.026Z,18.70
2018-07-23T03:14:51.446Z,18.80
2018-07-23T03:17:19.809Z,18.70
2018-07-23T03:19:48.253Z,18.70
2018-07-23T03:22:16.893Z,18.70
2018-07-23T03:24:45.607Z,18.60
2018-07-23T03:27:14.020Z,18.70
2018-07-23T03:29:42.418Z,18.70
2018-07-23T03:32:10.761Z,18.70
2018-07-23T03:34:39.179Z,18.60
2018-07-23T03:37:07.534Z,18.60
2018-07-23T03:39:35.937Z,18.60
2018-07-23T03:42:04.318Z,18.60
2018-07-23T03:44:32.859Z,18.60
2018-07-23T03:47:01.212Z,18.70
2018-07-23T03:49:29.593Z,18.70
2018-07-23T03:51:57.964Z,18.60
2018-07-23T03:54:26.315Z,18.60
2018-07-23T03:56:55.251Z,18.70
2018-07-23T03:59:23.623Z,18.70
2018-07-23T04:01:51.984Z,18.70
2018-07-23T04:04:20.520Z,18.70
2018-07-23T04:06:49.195Z,18.60
2018-07-23T04:09:17.800Z,18.60
2018-07-23T04:11:46.354Z,18.50
2018-07-23T04:14:15.282Z,18.60
2018-07-23T04:19:11.742Z,18.70
2018-07-23T04:21:40.110Z,18.70
2018-07-23T04:26:36.489Z,18.60
2018-07-23T04:29:04.927Z,18.60
2018-07-23T04:31:33.547Z,18.70
2018-07-23T04:34:01.903Z,18.70
2018-07-23T04:36:30.286Z,18.70
2018-07-23T04:41:33.460Z,18.80
2018-07-23T04:44:01.819Z,18.80
2018-07-23T04:46:30.222Z,18.90
2018-07-23T04:48:58.877Z,18.90
2018-07-23T04:51:27.253Z,18.90
2018-07-23T04:53:55.721Z,18.90
2018-07-23T04:56:24.110Z,19.00
2018-07-23T04:58:52.460Z,19.00
2018-07-23T05:01:20.919Z,19.10
2018-07-23T05:03:49.282Z,19.10
2018-07-23T05:06:17.827Z,19.20
2018-07-23T05:08:46.216Z,19.20
2018-07-23T05:11:14.546Z,19.20
2018-07-23T05:13:42.909Z,19.30
2018-07-23T05:16:11.273Z,19.30
2018-07-23T05:18:39.582Z,19.30
2018-07-23T05:21:09.152Z,19.40
2018-07-23T05:23:38.267Z,19.40
2018-07-23T05:26:07.244Z,19.50
2018-07-23T05:31:04.077Z,19.60
2018-07-23T05:33:32.386Z,19.70
2018-07-23T05:36:00.983Z,19.80
2018-07-23T05:38:29.593Z,19.80
2018-07-23T05:40:57.914Z,19.90
2018-07-23T05:43:26.247Z,19.90
2018-07-23T05:45:56.658Z,20.00
2018-07-23T05:48:29.356Z,20.00
2018-07-23T05:53:38.700Z,20.10
2018-07-23T05:56:07.328Z,20.20
2018-07-23T05:58:35.665Z,20.20
2018-07-23T06:01:03.996Z,20.30
2018-07-23T06:03:32.367Z,20.30
2018-07-23T06:06:00.719Z,20.40
2018-07-23T06:08:29.117Z,20.50
2018-07-23T06:10:57.493Z,20.50
2018-07-23T06:13:25.900Z,20.60
2018-07-23T06:15:54.252Z,20.70
2018-07-23T06:18:22.631Z,20.70
2018-07-23T06:20:50.994Z,20.80
2018-07-23T06:23:19.352Z,20.90
2018-07-23T06:25:47.768Z,20.90
2018-07-23T06:28:16.138Z,21.00
2018-07-23T06:30:44.500Z,21.10
2018-07-23T06:33:12.879Z,21.10
2018-07-23T06:35:41.304Z,21.20
2018-07-23T06:38:09.645Z,21.30
2018-07-23T06:40:38.017Z,21.30
2018-07-23T06:43:06.425Z,21.40
2018-07-23T06:45:34.802Z,21.40
2018-07-23T06:48:03.719Z,21.50
2018-07-23T06:50:32.818Z,21.60
2018-07-23T06:53:01.461Z,21.60
2018-07-23T06:55:29.814Z,21.60
2018-07-23T06:57:58.179Z,21.60
2018-07-23T07:00:26.571Z,21.70
2018-07-23T07:02:54.945Z,21.80
2018-07-23T07:05:23.272Z,21.80
2018-07-23T07:07:51.892Z,21.80
2018-07-23T07:10:20.274Z,21.90
2018-07-23T07:12:48.622Z,21.90
2018-07-23T07:15:17.039Z,21.90
2018-07-23T07:17:45.429Z,22.00
2018-07-23T07:20:13.837Z,22.00
2018-07-23T07:22:42.235Z,22.20
2018-07-23T07:25:11.374Z,22.30
2018-07-23T07:27:39.711Z,22.40
2018-07-23T07:30:09.914Z,22.50
2018-07-23T07:32:38.275Z,22.50
2018-07-23T07:35:06.701Z,22.50
2018-07-23T07:37:35.077Z,22.60
2018-07-23T07:40:03.491Z,22.60
2018-07-23T07:42:31.924Z,22.60
2018-07-23T07:45:00.277Z,22.70
2018-07-23T07:47:28.639Z,22.80
2018-07-23T07:49:57.041Z,22.90
2018-07-23T07:52:25.414Z,22.90
2018-07-23T07:54:53.781Z,23.00
2018-07-23T07:57:22.178Z,23.00
2018-07-23T07:59:50.598Z,23.00
2018-07-23T08:02:18.959Z,23.00
2018-07-23T08:04:47.409Z,23.20
2018-07-23T08:07:15.829Z,23.30
2018-07-23T08:09:44.197Z,23.50
2018-07-23T08:12:12.784Z,23.60
2018-07-23T08:14:41.229Z,23.80
2018-07-23T08:17:09.622Z,23.70
2018-07-23T08:22:06.464Z,23.80
2018-07-23T08:24:34.789Z,23.80
2018-07-23T08:27:03.240Z,24.00
2018-07-23T08:29:32.630Z,24.00
2018-07-23T08:34:29.186Z,24.20
2018-07-23T08:36:57.633Z,24.20
2018-07-23T08:39:25.903Z,24.30
2018-07-23T08:41:54.195Z,24.30
2018-07-23T08:44:22.537Z,24.40
2018-07-23T08:46:50.854Z,24.40
2018-07-23T08:49:19.257Z,24.40
2018-07-23T08:51:47.672Z,24.50
2018-07-23T08:54:16.211Z,24.60
2018-07-23T08:56:44.575Z,24.80
2018-07-23T10:25:47.322Z,24.90
2018-07-23T10:28:16.670Z,27.10
2018-07-23T10:30:45.971Z,27.00
2018-07-23T10:35:42.458Z,27.30
2018-07-23T10:38:10.778Z,27.40
2018-07-23T10:40:39.123Z,27.50
2018-07-23T10:43:07.500Z,27.60
2018-07-23T10:45:35.888Z,27.60
2018-07-23T10:48:04.280Z,27.50
2018-07-23T10:50:32.683Z,27.60
2018-07-23T10:53:01.091Z,27.50
2018-07-23T10:55:29.457Z,27.60
2018-07-23T10:57:58.036Z,27.80
2018-07-23T11:00:26.397Z,27.90
2018-07-23T11:02:54.762Z,27.90
2018-07-23T11:05:23.163Z,28.00
2018-07-23T11:07:51.510Z,28.00
2018-07-23T11:10:20.311Z,28.10
2018-07-23T11:12:48.730Z,28.10
2018-07-23T11:15:17.039Z,28.00
2018-07-23T11:17:45.414Z,28.00
2018-07-23T13:06:31.719Z,28.30
2018-07-23T13:09:00.047Z,30.60
2018-07-23T13:11:28.461Z,30.50
2018-07-23T13:13:56.768Z,30.50
2018-07-23T13:16:25.199Z,30.60
2018-07-23T13:18:53.910Z,30.60
2018-07-23T13:21:22.290Z,30.40
2018-07-23T13:23:50.882Z,30.50
2018-07-23T13:26:19.285Z,30.50
2018-07-23T13:28:47.768Z,30.60
2018-07-23T13:31:16.347Z,31.00
2018-07-23T13:33:44.729Z,31.00
2018-07-23T13:36:13.344Z,30.80
2018-07-23T13:38:42.331Z,30.80
2018-07-23T13:44:01.348Z,30.50
2018-07-23T13:46:29.684Z,30.70
2018-07-23T13:48:58.076Z,30.90
2018-07-23T13:51:26.399Z,30.90
2018-07-23T13:53:54.870Z,31.20
2018-07-23T13:56:23.211Z,30.90
2018-07-23T13:58:51.585Z,30.70
2018-07-23T14:01:19.932Z,30.60
2018-07-23T14:03:48.217Z,31.20
2018-07-23T14:06:16.570Z,30.80
2018-07-23T14:08:48.071Z,31.20
2018-07-23T14:11:16.402Z,31.20
2018-07-23T14:13:44.716Z,31.00
2018-07-23T14:16:13.010Z,31.20
2018-07-23T14:18:41.315Z,31.40
2018-07-23T14:21:09.613Z,31.60
2018-07-23T14:23:38.059Z,31.20
2018-07-23T14:26:06.362Z,31.20
2018-07-23T14:28:34.683Z,31.40
2018-07-23T14:31:03.082Z,31.60
2018-07-23T14:33:31.458Z,31.40
2018-07-23T14:35:59.820Z,31.30
2018-07-23T14:38:28.198Z,31.10
2018-07-23T14:40:56.483Z,31.40
2018-07-23T14:43:24.797Z,31.50
2018-07-23T14:45:53.125Z,31.60
2018-07-23T14:48:21.426Z,31.80
2018-07-23T14:50:49.798Z,31.60
2018-07-23T14:53:18.159Z,31.70
2018-07-23T14:55:46.498Z,31.70
2018-07-23T14:58:14.982Z,31.70
2018-07-23T15:00:43.304Z,31.70
2018-07-23T15:03:11.635Z,31.60
2018-07-23T15:05:39.975Z,31.80
2018-07-23T15:08:08.868Z,31.50
2018-07-23T15:10:37.191Z,31.60
2018-07-23T15:15:34.026Z,32.00
2018-07-23T15:18:02.410Z,31.80
2018-07-23T15:20:30.733Z,31.40
2018-07-23T15:22:59.137Z,31.30
2018-07-23T15:25:27.468Z,31.30
2018-07-23T15:27:55.791Z,31.10
2018-07-23T15:30:24.123Z,31.20
2018-07-23T15:35:20.475Z,31.60
2018-07-23T15:37:48.905Z,32.00
2018-07-23T15:40:17.178Z,32.10
2018-07-23T15:42:45.658Z,32.10
2018-07-23T15:45:13.986Z,32.50
2018-07-23T15:47:42.256Z,32.30
2018-07-23T15:50:10.599Z,31.80
2018-07-23T15:52:38.955Z,32.00
2018-07-23T15:55:07.314Z,32.50
2018-07-23T15:57:35.594Z,32.70
2018-07-23T16:02:31.984Z,34.40
2018-07-23T16:05:00.410Z,34.70
2018-07-23T16:07:28.737Z,36.20
2018-07-23T16:09:57.076Z,36.50
2018-07-23T16:12:25.613Z,37.30
2018-07-23T16:14:54.100Z,38.50
2018-07-23T16:17:22.455Z,39.90
2018-07-23T16:19:51.520Z,39.90
2018-07-23T16:22:19.853Z,39.80
2018-07-23T16:24:48.171Z,39.90
2018-07-23T16:27:16.692Z,39.90
2018-07-23T16:29:45.485Z,39.80
2018-07-23T16:32:20.859Z,40.10
2018-07-23T16:34:49.151Z,39.90
2018-07-23T16:37:17.540Z,39.20
2018-07-23T16:39:45.936Z,38.90
2018-07-23T16:42:14.274Z,40.00
2018-07-23T16:44:42.689Z,39.50
2018-07-23T16:47:10.997Z,39.50
2018-07-23T16:49:39.317Z,39.30
2018-07-23T16:54:36.358Z,40.00
2018-07-23T16:57:04.988Z,39.80
2018-07-23T16:59:35.138Z,39.90
2018-07-23T17:02:04.651Z,39.40
2018-07-23T17:04:33.012Z,39.60
2018-07-23T17:07:01.388Z,39.90
2018-07-23T17:09:29.767Z,39.50
2018-07-23T17:11:58.158Z,39.50
2018-07-23T17:16:56.697Z,39.80
2018-07-23T17:19:26.270Z,39.50
2018-07-23T17:21:56.314Z,39.60
2018-07-23T17:24:24.691Z,39.70
2018-07-23T17:26:53.099Z,38.50
2018-07-23T17:29:21.625Z,39.20
2018-07-23T17:31:49.998Z,39.50
2018-07-23T17:34:18.562Z,38.60
2018-07-23T17:36:46.942Z,36.20
2018-07-23T17:39:15.367Z,34.40
2018-07-23T17:41:43.772Z,32.90
2018-07-23T17:44:12.133Z,31.90
2018-07-23T17:46:40.573Z,31.30
2018-07-23T17:49:09.125Z,30.70
2018-07-23T17:51:37.460Z,30.60
2018-07-23T17:54:05.835Z,30.50
2018-07-23T17:56:34.237Z,30.10
2018-07-23T17:59:02.915Z,29.70
2018-07-23T18:01:31.246Z,29.70
2018-07-23T18:03:59.890Z,29.70
2018-07-23T18:06:28.412Z,29.60
2018-07-23T18:08:57.238Z,29.20
2018-07-23T18:11:25.762Z,29.20
2018-07-23T18:13:54.186Z,29.10
2018-07-23T18:16:22.606Z,29.00
2018-07-23T18:18:51.036Z,28.90
2018-07-23T18:21:19.405Z,28.80
2018-07-23T18:23:47.817Z,28.60
2018-07-23T18:26:16.175Z,28.60
2018-07-23T18:28:44.490Z,28.70
2018-07-23T18:31:12.896Z,28.60
2018-07-23T18:33:41.759Z,28.50
2018-07-23T18:36:10.228Z,28.50
2018-07-23T18:38:38.724Z,28.50
2018-07-23T18:41:07.029Z,28.40
2018-07-23T18:43:35.382Z,28.30
2018-07-23T18:46:04.009Z,28.20
2018-07-23T18:49:46.020Z,28.20
2018-07-23T18:52:15.578Z,28.10
2018-07-23T18:54:45.509Z,28.00
2018-07-23T18:57:18.492Z,27.90
2018-07-23T18:59:46.961Z,27.90
2018-07-23T19:02:18.677Z,27.80
2018-07-23T19:04:47.020Z,27.80
2018-07-23T19:07:15.575Z,27.70
2018-07-23T19:09:46.014Z,27.60
2018-07-23T19:12:15.110Z,27.60
2018-07-23T19:14:44.157Z,27.50
2018-07-23T19:17:14.245Z,27.50
2018-07-23T19:19:44.832Z,27.40
2018-07-23T19:22:13.249Z,27.20
2018-07-23T19:24:41.879Z,27.10
2018-07-23T19:27:10.420Z,27.00
2018-07-23T19:29:38.898Z,27.00
2018-07-23T19:32:07.431Z,26.90
2018-07-23T19:34:42.082Z,26.80
2018-07-23T19:37:14.450Z,26.80
2018-07-23T19:39:42.962Z,26.80
2018-07-23T19:44:40.056Z,26.40
2018-07-23T19:47:08.447Z,26.40
2018-07-23T19:49:36.874Z,26.30
2018-07-23T19:52:05.324Z,26.20
2018-07-23T19:54:33.685Z,26.20
2018-07-23T19:57:02.379Z,26.20
2018-07-23T19:59:30.778Z,26.10
2018-07-23T20:01:59.226Z,25.90
2018-07-23T20:04:28.597Z,25.70
2018-07-23T20:06:57.096Z,25.60
2018-07-23T20:09:25.566Z,25.50
2018-07-23T20:11:54.080Z,25.40
2018-07-23T20:14:22.657Z,25.30
2018-07-23T20:16:54.900Z,25.20
2018-07-23T20:19:23.791Z,25.20
2018-07-23T20:21:54.044Z,25.10
2018-07-23T20:24:22.841Z,25.10
2018-07-23T20:26:51.924Z,25.10
2018-07-23T20:29:20.707Z,25.10
2018-07-23T20:31:49.225Z,25.00
2018-07-23T20:34:17.605Z,24.90
2018-07-23T20:36:47.078Z,24.80
2018-07-23T20:39:17.198Z,24.80
2018-07-23T20:41:46.511Z,24.70
2018-07-23T20:44:14.863Z,24.70
2018-07-23T20:46:44.107Z,24.60
2018-07-23T20:49:12.418Z,24.50
2018-07-23T20:51:40.733Z,24.40
2018-07-23T20:54:09.103Z,24.40
2018-07-23T20:56:37.524Z,24.30
2018-07-23T20:59:06.282Z,24.30
2018-07-23T21:01:34.761Z,24.20
2018-07-23T21:04:04.872Z,24.20
2018-07-23T21:06:33.239Z,24.10
2018-07-23T21:09:02.474Z,24.10
2018-07-23T21:11:31.720Z,24.10
2018-07-23T21:14:00.813Z,24.10
2018-07-23T21:16:29.706Z,24.10
2018-07-23T21:18:58.109Z,24.00
2018-07-23T21:21:26.944Z,24.00
2018-07-23T21:23:55.231Z,24.00
2018-07-23T21:26:23.548Z,23.90
2018-07-23T21:28:51.878Z,23.90
2018-07-23T21:31:20.298Z,23.90
2018-07-23T21:33:48.607Z,23.90
2018-07-23T21:36:16.967Z,23.80
2018-07-23T21:38:45.321Z,23.70
2018-07-23T21:41:13.970Z,23.70
2018-07-23T21:43:42.338Z,23.60
2018-07-23T21:46:10.773Z,23.60
2018-07-23T21:48:39.133Z,23.60
2018-07-23T21:51:07.421Z,23.50
2018-07-23T21:53:35.885Z,23.50
2018-07-23T21:56:04.210Z,23.40
2018-07-23T21:58:32.651Z,23.40
2018-07-23T22:01:01.024Z,23.40
2018-07-23T22:03:29.401Z,23.40
2018-07-23T22:05:57.751Z,23.30
2018-07-23T22:08:26.079Z,23.30
2018-07-23T22:10:54.399Z,23.30
2018-07-23T22:13:22.698Z,23.30
2018-07-23T22:15:51.093Z,23.30
2018-07-23T22:18:19.575Z,23.20
2018-07-23T22:20:48.436Z,23.20
2018-07-23T22:23:16.737Z,23.10
2018-07-23T22:25:45.097Z,23.10
2018-07-23T22:28:13.442Z,23.10
2018-07-23T22:30:41.716Z,23.10
2018-07-23T22:33:10.429Z,23.00
2018-07-23T22:35:38.688Z,23.00
2018-07-23T22:38:06.993Z,22.90
2018-07-23T22:40:35.493Z,22.90
2018-07-23T22:43:03.801Z,22.90
2018-07-23T22:48:00.169Z,22.80
2018-07-23T22:50:28.657Z,22.80
2018-07-23T22:52:56.960Z,22.80
2018-07-23T22:55:25.263Z,22.80
2018-07-23T22:57:53.714Z,22.70
2018-07-23T23:00:22.059Z,22.70
2018-07-23T23:02:50.330Z,22.60
2018-07-23T23:05:18.631Z,22.60
2018-07-23T23:07:46.978Z,22.50
2018-07-23T23:10:15.257Z,22.40
2018-07-23T23:12:43.576Z,22.40
2018-07-23T23:15:11.995Z,22.40
2018-07-23T23:17:40.289Z,22.30
2018-07-23T23:20:09.180Z,22.30
2018-07-23T23:22:37.718Z,22.30
2018-07-23T23:25:06.101Z,22.30
2018-07-23T23:27:34.426Z,22.20
2018-07-23T23:30:03.148Z,22.20
2018-07-23T23:32:31.824Z,22.10
2018-07-23T23:35:00.156Z,22.10
2018-07-23T23:37:28.533Z,22.10
2018-07-23T23:39:56.970Z,22.00
2018-07-23T23:42:25.323Z,22.00
2018-07-23T23:44:53.631Z,22.00
2018-07-23T23:47:21.962Z,21.90
2018-07-23T23:49:50.305Z,22.00
2018-07-23T23:52:18.756Z,21.90
2018-07-23T23:54:47.141Z,21.90
2018-07-23T23:57:15.558Z,21.80
2018-07-23T23:59:44.822Z,21.80
